createdAt,value
2022-08-08T00:02:03.542Z,20.27
2022-08-08T00:04:49.444Z,20.23
2022-08-08T00:07:35.398Z,20.21
2022-08-08T00:10:15.203Z,20.18
2022-08-08T00:12:56.484Z,20.15
2022-08-08T00:15:56.451Z,20.12
2022-08-08T00:18:30.543Z,20.09
2022-08-08T00:21:06.091Z,20.09
2022-08-08T00:23:47.830Z,20.04
2022-08-08T00:26:29.691Z,20.03
2022-08-08T00:29:08.904Z,19.99
2022-08-08T00:32:14.886Z,19.96
2022-08-08T00:35:24.367Z,19.89
2022-08-08T00:38:32.402Z,19.84
2022-08-08T00:42:13.327Z,19.80
2022-08-08T00:45:44.598Z,19.74
2022-08-08T00:49:22.885Z,19.69
2022-08-08T00:52:21.300Z,19.63
2022-08-08T00:55:35.752Z,19.58
2022-08-08T00:58:55.255Z,19.52
2022-08-08T01:01:37.923Z,19.48
2022-08-08T01:05:28.976Z,19.41
2022-08-08T01:08:56.681Z,19.33
2022-08-08T01:12:04.755Z,19.30
2022-08-08T01:15:43.828Z,19.25
2022-08-08T01:19:02.589Z,19.21
2022-08-08T01:22:46.623Z,19.17
2022-08-08T01:26:13.278Z,19.14
2022-08-08T01:29:35.101Z,19.09
2022-08-08T01:33:27.728Z,19.05
2022-08-08T01:37:13.803Z,19.00
2022-08-08T01:40:05.952Z,18.97
2022-08-08T01:42:51.972Z,18.96
2022-08-08T01:45:54.221Z,18.92
2022-08-08T01:48:48.352Z,18.89
2022-08-08T01:52:04.654Z,18.84
2022-08-08T01:56:04.567Z,18.82
2022-08-08T01:58:32.242Z,18.75
2022-08-08T02:01:22.497Z,18.70
2022-08-08T02:04:11.661Z,18.67
2022-08-08T02:07:00.393Z,18.65
2022-08-08T02:10:04.132Z,18.61
2022-08-08T02:12:53.258Z,18.58
2022-08-08T02:15:38.596Z,18.55
2022-08-08T02:18:15.300Z,18.54
2022-08-08T02:21:18.165Z,18.50
2022-08-08T02:23:59.281Z,18.46
2022-08-08T02:26:34.839Z,18.42
2022-08-08T02:29:46.814Z,18.38
2022-08-08T02:33:02.209Z,18.34
2022-08-08T02:36:04.823Z,18.34
2022-08-08T02:38:55.853Z,18.29
2022-08-08T02:42:42.086Z,18.25
2022-08-08T02:46:08.088Z,18.20
2022-08-08T02:49:51.107Z,18.17
2022-08-08T02:52:51.587Z,18.12
2022-08-08T02:56:19.950Z,18.11
2022-08-08T02:59:58.348Z,18.06
2022-08-08T03:03:46.229Z,18.04
2022-08-08T03:07:20.004Z,18.02
2022-08-08T03:11:06.215Z,17.99
2022-08-08T03:15:59.847Z,17.95
2022-08-08T03:17:25.603Z,17.93
2022-08-08T03:20:08.319Z,17.91
2022-08-08T03:22:56.401Z,17.90
2022-08-08T03:25:35.770Z,17.88
2022-08-08T03:28:11.402Z,17.85
2022-08-08T03:30:48.750Z,17.81
2022-08-08T03:33:54.625Z,17.81
2022-08-08T03:36:13.750Z,17.79
2022-08-08T03:39:08.348Z,17.76
2022-08-08T03:42:27.862Z,17.75
2022-08-08T03:44:35.587Z,17.74
2022-08-08T03:47:19.843Z,17.72
2022-08-08T03:50:00.613Z,17.71
2022-08-08T03:52:36.866Z,17.68
2022-08-08T03:55:56.288Z,17.65
2022-08-08T03:58:35.257Z,17.60
2022-08-08T04:01:24.528Z,17.57
2022-08-08T04:03:58.044Z,17.55
2022-08-08T04:06:30.645Z,17.55
2022-08-08T04:09:08.850Z,17.53
2022-08-08T04:11:59.096Z,17.52
2022-08-08T04:14:39.698Z,17.49
2022-08-08T04:17:22.880Z,17.47
2022-08-08T04:20:04.887Z,17.46
2022-08-08T04:22:34.722Z,17.48
2022-08-08T04:25:07.277Z,17.47
2022-08-08T04:28:02.067Z,17.46
2022-08-08T04:30:27.852Z,17.44
2022-08-08T04:32:56.705Z,17.45
2022-08-08T04:35:34.487Z,17.45
2022-08-08T04:38:09.841Z,17.44
2022-08-08T04:40:53.656Z,17.40
2022-08-08T04:43:31.948Z,17.38
2022-08-08T04:46:18.590Z,17.39
2022-08-08T04:48:48.448Z,17.40
2022-08-08T04:51:17.471Z,17.43
2022-08-08T04:54:38.978Z,17.43
2022-08-08T04:56:46.232Z,17.42
2022-08-08T04:59:16.156Z,17.44
2022-08-08T05:01:48.172Z,17.43
2022-08-08T05:04:19.255Z,17.41
2022-08-08T05:06:50.566Z,17.41
2022-08-08T05:09:21.546Z,17.43
2022-08-08T05:11:56.766Z,17.44
2022-08-08T05:14:30.548Z,17.48
2022-08-08T05:17:09.003Z,17.49
2022-08-08T05:20:11.574Z,17.52
2022-08-08T05:22:36.281Z,17.55
2022-08-08T05:25:06.150Z,17.58
2022-08-08T05:27:41.682Z,17.62
2022-08-08T05:30:16.598Z,17.67
2022-08-08T05:32:57.054Z,17.71
2022-08-08T05:35:28.773Z,17.73
2022-08-08T05:38:30.478Z,17.77
2022-08-08T05:40:59.857Z,17.78
2022-08-08T05:43:39.366Z,17.79
2022-08-08T05:46:24.604Z,17.82
2022-08-08T05:48:56.674Z,17.86
2022-08-08T05:51:48.177Z,17.89
2022-08-08T05:54:26.839Z,17.92
2022-08-08T05:56:58.240Z,17.94
2022-08-08T05:59:53.609Z,17.97
2022-08-08T06:02:48.720Z,18.02
2022-08-08T06:05:34.954Z,18.06
2022-08-08T06:08:33.128Z,18.11
2022-08-08T06:11:07.249Z,18.15
2022-08-08T06:13:47.553Z,18.18
2022-08-08T06:16:27.568Z,18.23
2022-08-08T06:19:18.867Z,18.31
2022-08-08T06:21:57.913Z,18.37
2022-08-08T06:24:47.089Z,18.39
2022-08-08T06:27:22.689Z,18.45
2022-08-08T06:30:02.538Z,18.50
2022-08-08T06:32:47.635Z,18.57
2022-08-08T06:36:04.945Z,18.62
2022-08-08T06:38:14.412Z,18.66
2022-08-08T06:40:53.829Z,18.73
2022-08-08T06:43:34.377Z,18.79
2022-08-08T06:46:23.789Z,18.86
2022-08-08T06:48:56.031Z,18.93
2022-08-08T06:51:31.197Z,19.02
2022-08-08T06:54:15.624Z,19.10
2022-08-08T06:56:51.584Z,19.17
2022-08-08T06:59:21.949Z,19.25
2022-08-08T07:02:27.912Z,19.33
2022-08-08T07:04:58.392Z,19.43
2022-08-08T07:07:49.750Z,19.51
2022-08-08T07:10:21.706Z,19.60
2022-08-08T07:12:55.364Z,19.71
2022-08-08T07:16:05.017Z,19.80
2022-08-08T07:18:40.829Z,19.86
2022-08-08T07:21:21.223Z,20.00
2022-08-08T07:24:06.956Z,20.20
2022-08-08T07:26:52.980Z,20.50
2022-08-08T07:30:01.972Z,20.94
2022-08-08T07:32:15.625Z,21.55
2022-08-08T07:35:00.763Z,22.13
2022-08-08T07:37:49.588Z,22.81
2022-08-08T07:40:35.416Z,23.46
2022-08-08T07:43:09.199Z,23.96
2022-08-08T07:46:05.781Z,24.41
2022-08-08T07:48:34.423Z,24.84
2022-08-08T07:51:05.603Z,25.13
2022-08-08T07:54:01.110Z,25.47
2022-08-08T07:56:45.142Z,25.85
2022-08-08T07:59:19.468Z,26.15
2022-08-08T08:02:35.579Z,26.42
2022-08-08T08:05:03.553Z,26.71
2022-08-08T08:07:38.919Z,27.03
2022-08-08T08:10:14.273Z,27.39
2022-08-08T08:12:54.358Z,27.65
2022-08-08T08:15:32.034Z,27.89
2022-08-08T08:18:06.248Z,27.96
2022-08-08T08:20:44.008Z,28.08
2022-08-08T08:23:13.693Z,28.25
2022-08-08T08:25:55.197Z,28.37
2022-08-08T08:28:27.314Z,28.63
2022-08-08T08:31:04.643Z,28.87
2022-08-08T08:33:35.884Z,29.11
2022-08-08T08:36:18.556Z,29.35
2022-08-08T08:38:52.509Z,29.62
2022-08-08T08:41:43.241Z,29.74
2022-08-08T08:44:19.852Z,29.80
2022-08-08T08:46:58.481Z,29.93
2022-08-08T08:49:31.930Z,30.06
2022-08-08T08:52:04.696Z,30.29
2022-08-08T08:54:36.152Z,30.37
2022-08-08T08:57:15.960Z,30.50
2022-08-08T08:59:59.451Z,30.61
2022-08-08T09:02:37.220Z,30.76
2022-08-08T09:05:13.999Z,30.87
2022-08-08T09:08:12.777Z,30.89
2022-08-08T09:10:48.549Z,31.05
2022-08-08T09:13:27.815Z,31.26
2022-08-08T09:16:03.542Z,31.52
2022-08-08T09:18:33.406Z,31.71
2022-08-08T09:21:56.515Z,31.83
2022-08-08T09:23:52.123Z,32.03
2022-08-08T09:26:32.438Z,32.33
2022-08-08T09:29:08.223Z,32.60
2022-08-08T09:31:56.090Z,32.95
2022-08-08T09:34:35.449Z,33.10
2022-08-08T09:37:57.788Z,33.20
2022-08-08T09:40:11.856Z,33.50
2022-08-08T09:42:51.192Z,33.77
2022-08-08T09:46:01.172Z,33.99
2022-08-08T09:48:22.056Z,34.15
2022-08-08T09:50:55.738Z,34.34
2022-08-08T09:54:01.160Z,34.42
2022-08-08T09:56:25.373Z,34.60
2022-08-08T09:59:20.045Z,34.75
2022-08-08T10:01:59.119Z,35.02
2022-08-08T10:04:41.723Z,35.29
2022-08-08T10:07:17.365Z,35.53
2022-08-08T10:10:00.701Z,35.69
2022-08-08T10:12:38.859Z,35.79
2022-08-08T10:15:24.394Z,35.78
2022-08-08T10:18:06.304Z,35.84
2022-08-08T10:20:58.194Z,35.78
2022-08-08T10:23:45.034Z,35.96
2022-08-08T10:26:30.536Z,35.99
2022-08-08T10:29:06.009Z,36.05
2022-08-08T10:31:55.444Z,36.18
2022-08-08T10:34:28.809Z,36.38
2022-08-08T10:37:00.523Z,36.51
2022-08-08T10:39:42.841Z,36.56
2022-08-08T10:42:16.989Z,36.52
2022-08-08T10:44:46.121Z,36.38
2022-08-08T10:47:20.746Z,36.41
2022-08-08T10:50:02.278Z,36.53
2022-08-08T10:52:35.697Z,36.55
2022-08-08T10:55:07.461Z,36.71
2022-08-08T10:57:49.988Z,36.81
2022-08-08T11:00:26.133Z,36.95
2022-08-08T11:02:55.331Z,37.14
2022-08-08T11:05:27.450Z,37.19
2022-08-08T11:08:38.135Z,37.33
2022-08-08T11:11:07.974Z,37.38
2022-08-08T11:14:00.537Z,37.48
2022-08-08T11:16:34.658Z,37.49
2022-08-08T11:19:06.015Z,37.56
2022-08-08T11:21:53.952Z,37.66
2022-08-08T11:24:28.919Z,37.89
2022-08-08T11:27:20.001Z,38.11
2022-08-08T11:30:04.436Z,38.36
2022-08-08T11:32:47.435Z,38.30
2022-08-08T11:35:27.287Z,38.39
2022-08-08T11:38:35.724Z,38.34
2022-08-08T11:40:55.852Z,38.43
2022-08-08T11:43:39.093Z,38.73
2022-08-08T11:46:13.915Z,38.97
2022-08-08T11:48:48.002Z,39.21
2022-08-08T11:51:38.245Z,39.39
2022-08-08T11:54:27.465Z,39.46
2022-08-08T11:57:14.177Z,39.40
2022-08-08T12:00:01.604Z,39.44
2022-08-08T12:02:52.104Z,39.49
2022-08-08T12:05:33.499Z,39.54
2022-08-08T12:08:02.636Z,39.48
2022-08-08T12:10:34.087Z,39.48
2022-08-08T12:13:10.530Z,39.49
2022-08-08T12:15:46.939Z,39.54
2022-08-08T12:18:21.322Z,39.55
2022-08-08T12:20:53.255Z,39.64
2022-08-08T12:23:43.419Z,39.66
2022-08-08T12:26:28.181Z,39.79
2022-08-08T12:29:40.470Z,39.90
2022-08-08T12:32:16.924Z,40.10
2022-08-08T12:35:13.395Z,40.09
2022-08-08T12:38:01.527Z,40.01
2022-08-08T12:40:57.096Z,40.05
2022-08-08T12:43:46.556Z,40.05
2022-08-08T12:46:25.141Z,40.06
2022-08-08T12:51:59.177Z,40.28
2022-08-08T12:54:33.031Z,40.33
2022-08-08T12:57:13.162Z,40.27
2022-08-08T13:00:05.094Z,40.35
2022-08-08T13:02:42.093Z,40.56
2022-08-08T13:05:26.641Z,40.61
2022-08-08T13:08:17.210Z,40.88
2022-08-08T13:10:56.823Z,41.09
2022-08-08T13:13:36.975Z,41.15
2022-08-08T13:16:30.035Z,41.08
2022-08-08T13:19:07.967Z,41.09
2022-08-08T13:21:53.528Z,41.19
2022-08-08T13:24:42.083Z,41.18
2022-08-08T13:27:15.754Z,41.21
2022-08-08T13:29:53.150Z,41.33
2022-08-08T13:32:25.274Z,41.37
2022-08-08T13:34:57.762Z,41.36
2022-08-08T13:38:05.711Z,41.37
2022-08-08T13:40:27.568Z,41.41
2022-08-08T13:42:57.682Z,41.45
2022-08-08T13:45:27.350Z,41.65
2022-08-08T13:48:00.014Z,41.85
2022-08-08T13:50:43.960Z,41.85
2022-08-08T13:53:31.365Z,41.94
2022-08-08T13:56:01.685Z,42.15
2022-08-08T13:58:31.153Z,42.28
2022-08-08T14:01:16.371Z,42.24
2022-08-08T14:03:56.196Z,42.23
2022-08-08T14:06:34.274Z,42.08
2022-08-08T14:09:25.510Z,42.07
2022-08-08T14:11:54.556Z,42.22
2022-08-08T14:14:26.998Z,42.37
2022-08-08T14:16:57.430Z,42.50
2022-08-08T14:19:57.973Z,42.59
2022-08-08T14:22:28.691Z,42.68
2022-08-08T14:25:00.779Z,42.79
2022-08-08T14:27:33.311Z,42.84
2022-08-08T14:30:17.916Z,42.72
2022-08-08T14:32:53.266Z,42.51
2022-08-08T14:35:35.090Z,42.24
2022-08-08T14:38:33.919Z,42.01
2022-08-08T14:40:59.602Z,41.90
2022-08-08T14:44:02.864Z,41.89
2022-08-08T14:46:19.344Z,41.78
2022-08-08T14:49:02.684Z,41.76
2022-08-08T14:51:51.803Z,41.74
2022-08-08T14:54:28.882Z,41.49
2022-08-08T14:56:58.612Z,41.43
2022-08-08T14:59:44.413Z,41.62
2022-08-08T15:02:25.618Z,41.81
2022-08-08T15:05:08.005Z,41.90
2022-08-08T15:07:40.476Z,42.01
2022-08-08T15:10:13.061Z,42.23
2022-08-08T15:12:42.187Z,42.52
2022-08-08T15:15:18.804Z,42.57
2022-08-08T15:18:02.157Z,42.42
2022-08-08T15:20:31.329Z,42.35
2022-08-08T15:23:00.317Z,42.34
2022-08-08T15:25:33.075Z,42.25
2022-08-08T15:28:04.165Z,42.11
2022-08-08T15:30:51.419Z,41.83
2022-08-08T15:33:38.230Z,41.85
2022-08-08T15:36:10.232Z,41.96
2022-08-08T15:38:49.536Z,41.77
2022-08-08T15:41:24.572Z,41.46
2022-08-08T15:44:00.702Z,41.52
2022-08-08T15:46:34.860Z,41.60
2022-08-08T15:49:04.587Z,41.43
2022-08-08T15:51:33.620Z,41.40
2022-08-08T15:54:04.181Z,41.35
2022-08-08T15:56:34.001Z,41.35
2022-08-08T15:59:02.438Z,41.38
2022-08-08T16:01:40.447Z,41.36
2022-08-08T16:04:20.159Z,41.22
2022-08-08T16:06:50.433Z,41.15
2022-08-08T16:13:08.885Z,41.00
2022-08-08T16:13:09.902Z,40.73
2022-08-08T16:14:58.398Z,40.43
2022-08-08T16:17:57.374Z,40.16
2022-08-08T16:20:15.250Z,40.19
2022-08-08T16:22:49.323Z,40.29
2022-08-08T16:25:20.993Z,40.28
2022-08-08T16:27:57.138Z,40.23
2022-08-08T16:30:36.380Z,40.25
2022-08-08T16:33:05.728Z,40.19
2022-08-08T16:35:34.311Z,40.04
2022-08-08T16:38:02.807Z,39.74
2022-08-08T16:40:31.974Z,39.57
2022-08-08T16:43:01.905Z,39.51
2022-08-08T16:46:43.736Z,39.56
2022-08-08T16:48:19.383Z,39.54
2022-08-08T16:50:47.918Z,39.43
2022-08-08T16:55:05.263Z,39.37
2022-08-08T16:56:08.833Z,39.22
2022-08-08T16:58:44.408Z,39.07
2022-08-08T17:01:15.883Z,38.92
2022-08-08T17:04:00.910Z,38.65
2022-08-08T17:06:37.374Z,38.38
2022-08-08T17:09:15.304Z,38.26
2022-08-08T17:11:48.996Z,38.04
2022-08-08T17:14:27.076Z,37.95
2022-08-08T17:16:58.373Z,37.82
2022-08-08T17:19:30.346Z,37.63
2022-08-08T17:22:07.100Z,37.16
2022-08-08T17:24:36.729Z,36.62
2022-08-08T17:27:07.527Z,36.24
2022-08-08T17:29:43.819Z,35.94
2022-08-08T17:32:34.348Z,35.75
2022-08-08T17:35:54.376Z,35.52
2022-08-08T17:38:00.671Z,35.38
2022-08-08T17:40:32.192Z,35.29
2022-08-08T17:43:00.941Z,35.16
2022-08-08T17:45:32.799Z,34.89
2022-08-08T17:48:10.107Z,34.65
2022-08-08T17:50:43.850Z,34.35
2022-08-08T17:53:12.712Z,34.02
2022-08-08T17:56:06.270Z,33.70
2022-08-08T17:58:30.394Z,33.18
2022-08-08T18:01:00.176Z,32.77
2022-08-08T18:03:28.663Z,32.40
2022-08-08T18:05:57.177Z,32.06
2022-08-08T18:08:41.480Z,31.72
2022-08-08T18:11:16.169Z,31.36
2022-08-08T18:13:47.193Z,31.08
2022-08-08T18:16:22.854Z,30.85
2022-08-08T18:18:56.046Z,30.63
2022-08-08T18:22:00.236Z,30.42
2022-08-08T18:24:21.206Z,30.20
2022-08-08T18:26:54.828Z,29.96
2022-08-08T18:29:29.804Z,29.76
2022-08-08T18:32:03.565Z,29.58
2022-08-08T18:34:34.155Z,29.45
2022-08-08T18:37:08.420Z,29.29
2022-08-08T18:39:42.048Z,29.13
2022-08-08T18:42:15.809Z,29.00
2022-08-08T18:44:55.569Z,28.88
2022-08-08T18:47:31.264Z,28.75
2022-08-08T18:50:02.508Z,28.61
2022-08-08T18:52:33.875Z,28.49
2022-08-08T18:55:10.167Z,28.37
2022-08-08T18:57:44.610Z,28.26
2022-08-08T19:00:20.096Z,28.14
2022-08-08T19:02:56.859Z,28.04
2022-08-08T19:05:37.710Z,27.92
2022-08-08T19:08:25.245Z,27.80
2022-08-08T19:10:59.266Z,27.68
2022-08-08T19:13:53.857Z,27.60
2022-08-08T19:16:19.404Z,27.48
2022-08-08T19:19:01.968Z,27.40
2022-08-08T19:21:32.935Z,27.30
2022-08-08T19:24:05.721Z,27.21
2022-08-08T19:26:37.438Z,27.11
2022-08-08T19:29:07.107Z,27.02
2022-08-08T19:31:36.145Z,26.96
2022-08-08T19:34:36.579Z,26.88
2022-08-08T19:36:59.283Z,26.77
2022-08-08T19:39:35.592Z,26.70
2022-08-08T19:42:06.749Z,26.60
2022-08-08T19:44:42.667Z,26.54
2022-08-08T19:47:12.593Z,26.46
2022-08-08T19:49:43.039Z,26.38
2022-08-08T19:52:13.312Z,26.31
2022-08-08T19:54:43.212Z,26.23
2022-08-08T19:57:14.235Z,26.17
2022-08-08T19:59:44.769Z,26.11
2022-08-08T20:02:13.406Z,26.06
2022-08-08T20:04:45.611Z,26.01
2022-08-08T20:08:27.072Z,25.94
2022-08-08T20:10:03.024Z,25.88
2022-08-08T20:12:35.229Z,25.82
2022-08-08T20:15:09.756Z,25.78
2022-08-08T20:17:45.049Z,25.71
2022-08-08T20:20:18.863Z,25.66
2022-08-08T20:22:52.514Z,25.62
2022-08-08T20:25:24.728Z,25.57
2022-08-08T20:28:02.151Z,25.51
2022-08-08T20:30:53.671Z,25.46
2022-08-08T20:35:58.511Z,25.36
2022-08-08T20:38:33.392Z,25.28
2022-08-08T20:41:05.464Z,25.21
2022-08-08T20:43:49.323Z,25.14
2022-08-08T20:46:20.248Z,25.06
2022-08-08T20:48:51.310Z,25.00
2022-08-08T20:51:21.357Z,24.94
2022-08-08T20:53:58.989Z,24.89
2022-08-08T20:56:35.948Z,24.82
2022-08-08T20:59:18.246Z,24.75
2022-08-08T21:02:06.553Z,24.68
2022-08-08T21:04:37.264Z,24.59
2022-08-08T21:07:08.319Z,24.51
2022-08-08T21:10:02.276Z,24.44
2022-08-08T21:12:33.260Z,24.37
2022-08-08T21:15:06.948Z,24.30
2022-08-08T21:17:36.861Z,24.23
2022-08-08T21:20:06.990Z,24.15
2022-08-08T21:22:37.922Z,24.06
2022-08-08T21:25:10.807Z,24.00
2022-08-08T21:28:09.249Z,23.91
2022-08-08T21:30:31.672Z,23.85
2022-08-08T21:33:00.063Z,23.80
2022-08-08T21:36:14.317Z,23.75
2022-08-08T21:38:27.185Z,23.69
2022-08-08T21:40:57.185Z,23.62
2022-08-08T21:43:34.224Z,23.56
2022-08-08T21:48:04.363Z,23.51
2022-08-08T21:48:53.934Z,23.47
2022-08-08T21:54:17.506Z,23.43
2022-08-08T21:54:22.350Z,23.37
2022-08-08T21:57:06.780Z,23.34
2022-08-08T22:00:01.337Z,23.31
2022-08-08T22:02:23.997Z,23.27
2022-08-08T22:04:55.904Z,23.23
2022-08-08T22:07:40.358Z,23.16
2022-08-08T22:10:18.162Z,23.14
2022-08-08T22:13:17.241Z,23.09
2022-08-08T22:15:58.584Z,23.06
2022-08-08T22:18:32.444Z,23.02
2022-08-08T22:21:14.342Z,22.98
2022-08-08T22:23:50.254Z,22.92
2022-08-08T22:26:28.179Z,22.87
2022-08-08T22:29:14.283Z,22.84
2022-08-08T22:32:01.500Z,22.79
2022-08-08T22:34:32.574Z,22.74
2022-08-08T22:37:01.490Z,22.71
2022-08-08T22:39:45.650Z,22.69
2022-08-08T22:42:24.047Z,22.65
2022-08-08T22:44:56.685Z,22.63
2022-08-08T22:47:34.178Z,22.61
2022-08-08T22:50:26.789Z,22.57
2022-08-08T22:54:27.494Z,22.52
2022-08-08T22:55:57.645Z,22.49
2022-08-08T22:58:33.848Z,22.46
2022-08-08T23:01:16.636Z,22.44
2022-08-08T23:03:54.983Z,22.38
2022-08-08T23:06:25.033Z,22.34
2022-08-08T23:08:55.306Z,22.31
2022-08-08T23:11:58.165Z,22.29
2022-08-08T23:14:18.379Z,22.23
2022-08-08T23:16:57.610Z,22.20
2022-08-08T23:19:30.986Z,22.16
2022-08-08T23:22:04.464Z,22.10
2022-08-08T23:24:36.176Z,22.07
2022-08-08T23:27:07.156Z,22.03
2022-08-08T23:29:38.106Z,21.99
2022-08-08T23:32:10.129Z,21.96
2022-08-08T23:34:39.669Z,21.92
2022-08-08T23:37:24.582Z,21.89
2022-08-08T23:39:55.527Z,21.84
2022-08-08T23:42:26.516Z,21.78
2022-08-08T23:44:57.565Z,21.74
2022-08-08T23:49:03.891Z,21.69
2022-08-08T23:50:30.210Z,21.63
2022-08-08T23:53:05.062Z,21.57
2022-08-08T23:55:42.172Z,21.54
2022-08-08T23:58:31.907Z,21.50
